sensor_id;sensor_type;location;lat;lon;timestamp;temperature;humidity
49385;DHT22;36795;45.028;38.968;2024-03-02T00:02:57;6.20;61.30
49385;DHT22;36795;45.028;38.968;2024-03-02T00:05:44;6.10;61.60
49385;DHT22;36795;45.028;38.968;2024-03-02T00:08:34;6.10;61.80
49385;DHT22;36795;45.028;38.968;2024-03-02T00:11:20;6.00;61.90
49385;DHT22;36795;45.028;38.968;2024-03-02T00:14:06;6.00;62.00
49385;DHT22;36795;45.028;38.968;2024-03-02T00:16:55;6.00;62.10
49385;DHT22;36795;45.028;38.968;2024-03-02T00:19:41;6.00;62.30
49385;DHT22;36795;45.028;38.968;2024-03-02T00:22:27;6.00;62.40
49385;DHT22;36795;45.028;38.968;2024-03-02T00:25:13;5.90;62.50
49385;DHT22;36795;45.028;38.968;2024-03-02T00:28:00;5.90;62.80
49385;DHT22;36795;45.028;38.968;2024-03-02T00:33:48;5.90;63.10
49385;DHT22;36795;45.028;38.968;2024-03-02T00:36:34;5.80;63.20
49385;DHT22;36795;45.028;38.968;2024-03-02T00:39:20;5.70;63.30
49385;DHT22;36795;45.028;38.968;2024-03-02T00:42:06;5.70;63.60
49385;DHT22;36795;45.028;38.968;2024-03-02T00:44:54;5.70;63.60
49385;DHT22;36795;45.028;38.968;2024-03-02T00:47:40;5.70;63.80
49385;DHT22;36795;45.028;38.968;2024-03-02T00:50:26;5.60;63.90
49385;DHT22;36795;45.028;38.968;2024-03-02T00:53:12;5.60;64.10
49385;DHT22;36795;45.028;38.968;2024-03-02T00:55:59;5.60;64.20
49385;DHT22;36795;45.028;38.968;2024-03-02T00:58:46;5.50;64.20
49385;DHT22;36795;45.028;38.968;2024-03-02T01:01:33;5.40;64.40
49385;DHT22;36795;45.028;38.968;2024-03-02T01:04:19;5.30;64.60
49385;DHT22;36795;45.028;38.968;2024-03-02T01:07:06;5.30;64.70
49385;DHT22;36795;45.028;38.968;2024-03-02T01:09:51;5.30;64.90
49385;DHT22;36795;45.028;38.968;2024-03-02T01:12:38;5.30;65.50
49385;DHT22;36795;45.028;38.968;2024-03-02T01:15:24;5.30;64.90
49385;DHT22;36795;45.028;38.968;2024-03-02T01:18:10;5.20;65.00
49385;DHT22;36795;45.028;38.968;2024-03-02T01:20:57;5.20;65.20
49385;DHT22;36795;45.028;38.968;2024-03-02T01:23:43;5.10;65.30
49385;DHT22;36795;45.028;38.968;2024-03-02T01:26:29;5.10;65.30
49385;DHT22;36795;45.028;38.968;2024-03-02T01:29:16;5.00;65.30
49385;DHT22;36795;45.028;38.968;2024-03-02T01:32:02;5.00;65.40
49385;DHT22;36795;45.028;38.968;2024-03-02T01:34:48;5.00;65.40
49385;DHT22;36795;45.028;38.968;2024-03-02T01:37:35;4.90;66.00
49385;DHT22;36795;45.028;38.968;2024-03-02T01:40:21;4.90;65.50
49385;DHT22;36795;45.028;38.968;2024-03-02T01:43:10;4.90;65.40
49385;DHT22;36795;45.028;38.968;2024-03-02T01:45:56;4.90;65.40
49385;DHT22;36795;45.028;38.968;2024-03-02T01:48:43;4.80;65.50
49385;DHT22;36795;45.028;38.968;2024-03-02T01:51:29;4.80;65.50
49385;DHT22;36795;45.028;38.968;2024-03-02T01:54:15;4.80;65.50
49385;DHT22;36795;45.028;38.968;2024-03-02T01:57:01;4.80;65.50
49385;DHT22;36795;45.028;38.968;2024-03-02T01:59:47;4.80;65.50
49385;DHT22;36795;45.028;38.968;2024-03-02T02:02:34;4.80;65.40
49385;DHT22;36795;45.028;38.968;2024-03-02T02:05:21;4.80;65.40
49385;DHT22;36795;45.028;38.968;2024-03-02T02:08:07;4.80;65.40
49385;DHT22;36795;45.028;38.968;2024-03-02T02:10:53;4.80;65.40
49385;DHT22;36795;45.028;38.968;2024-03-02T02:13:39;4.70;65.30
49385;DHT22;36795;45.028;38.968;2024-03-02T02:16:25;4.60;65.40
49385;DHT22;36795;45.028;38.968;2024-03-02T02:19:11;4.50;65.60
49385;DHT22;36795;45.028;38.968;2024-03-02T02:21:57;4.50;65.70
49385;DHT22;36795;45.028;38.968;2024-03-02T02:24:42;4.40;65.60
49385;DHT22;36795;45.028;38.968;2024-03-02T02:27:29;4.50;65.70
49385;DHT22;36795;45.028;38.968;2024-03-02T02:30:28;4.40;65.50
49385;DHT22;36795;45.028;38.968;2024-03-02T02:33:15;4.40;65.70
49385;DHT22;36795;45.028;38.968;2024-03-02T02:36:01;4.20;65.70
49385;DHT22;36795;45.028;38.968;2024-03-02T02:38:49;4.10;65.80
49385;DHT22;36795;45.028;38.968;2024-03-02T02:41:36;4.10;66.00
49385;DHT22;36795;45.028;38.968;2024-03-02T02:44:22;4.00;66.00
49385;DHT22;36795;45.028;38.968;2024-03-02T02:47:08;4.00;66.00
49385;DHT22;36795;45.028;38.968;2024-03-02T02:49:54;4.00;66.00
49385;DHT22;36795;45.028;38.968;2024-03-02T02:52:42;4.00;66.00
49385;DHT22;36795;45.028;38.968;2024-03-02T02:55:28;4.00;66.00
49385;DHT22;36795;45.028;38.968;2024-03-02T02:58:14;4.00;66.00
49385;DHT22;36795;45.028;38.968;2024-03-02T03:01:01;4.00;66.00
49385;DHT22;36795;45.028;38.968;2024-03-02T03:03:47;3.90;66.10
49385;DHT22;36795;45.028;38.968;2024-03-02T03:06:33;3.80;66.20
49385;DHT22;36795;45.028;38.968;2024-03-02T03:09:19;3.80;66.40
49385;DHT22;36795;45.028;38.968;2024-03-02T03:12:06;3.80;66.80
49385;DHT22;36795;45.028;38.968;2024-03-02T03:14:52;3.80;66.40
49385;DHT22;36795;45.028;38.968;2024-03-02T03:17:38;3.80;66.30
49385;DHT22;36795;45.028;38.968;2024-03-02T03:20:24;3.80;66.30
49385;DHT22;36795;45.028;38.968;2024-03-02T03:23:11;3.80;66.30
49385;DHT22;36795;45.028;38.968;2024-03-02T03:26:00;3.70;66.30
49385;DHT22;36795;45.028;38.968;2024-03-02T03:28:47;3.70;66.40
49385;DHT22;36795;45.028;38.968;2024-03-02T03:31:32;3.60;66.50
49385;DHT22;36795;45.028;38.968;2024-03-02T03:34:19;3.60;66.70
49385;DHT22;36795;45.028;38.968;2024-03-02T03:37:04;3.60;66.80
49385;DHT22;36795;45.028;38.968;2024-03-02T03:39:51;3.60;66.60
49385;DHT22;36795;45.028;38.968;2024-03-02T03:42:37;3.70;66.50
49385;DHT22;36795;45.028;38.968;2024-03-02T03:45:24;3.70;66.40
49385;DHT22;36795;45.028;38.968;2024-03-02T03:48:11;3.60;66.40
49385;DHT22;36795;45.028;38.968;2024-03-02T03:50:57;3.60;66.50
49385;DHT22;36795;45.028;38.968;2024-03-02T03:53:43;3.60;66.50
49385;DHT22;36795;45.028;38.968;2024-03-02T03:56:29;3.60;66.50
49385;DHT22;36795;45.028;38.968;2024-03-02T03:59:15;3.60;66.40
49385;DHT22;36795;45.028;38.968;2024-03-02T04:02:01;3.60;66.50
49385;DHT22;36795;45.028;38.968;2024-03-02T04:04:48;3.60;66.50
49385;DHT22;36795;45.028;38.968;2024-03-02T04:07:37;3.60;66.50
49385;DHT22;36795;45.028;38.968;2024-03-02T04:10:26;3.60;66.60
49385;DHT22;36795;45.028;38.968;2024-03-02T04:13:12;3.60;66.60
49385;DHT22;36795;45.028;38.968;2024-03-02T04:15:58;3.60;66.60
49385;DHT22;36795;45.028;38.968;2024-03-02T04:18:43;3.60;66.50
49385;DHT22;36795;45.028;38.968;2024-03-02T04:21:30;3.60;66.60
49385;DHT22;36795;45.028;38.968;2024-03-02T04:24:16;3.60;66.60
49385;DHT22;36795;45.028;38.968;2024-03-02T04:27:02;3.60;66.60
49385;DHT22;36795;45.028;38.968;2024-03-02T04:29:48;3.70;66.60
49385;DHT22;36795;45.028;38.968;2024-03-02T04:32:34;3.70;66.40
49385;DHT22;36795;45.028;38.968;2024-03-02T04:35:21;3.80;66.50
49385;DHT22;36795;45.028;38.968;2024-03-02T04:38:08;3.90;66.30
49385;DHT22;36795;45.028;38.968;2024-03-02T04:40:54;3.90;66.10
49385;DHT22;36795;45.028;38.968;2024-03-02T04:43:40;4.00;66.00
49385;DHT22;36795;45.028;38.968;2024-03-02T04:46:26;4.00;66.00
49385;DHT22;36795;45.028;38.968;2024-03-02T04:49:12;4.00;66.00
49385;DHT22;36795;45.028;38.968;2024-03-02T04:51:58;4.10;65.80
49385;DHT22;36795;45.028;38.968;2024-03-02T04:54:44;4.20;65.70
49385;DHT22;36795;45.028;38.968;2024-03-02T04:57:49;4.30;65.40
49385;DHT22;36795;45.028;38.968;2024-03-02T05:00:37;4.40;65.20
49385;DHT22;36795;45.028;38.968;2024-03-02T05:03:23;4.50;65.10
49385;DHT22;36795;45.028;38.968;2024-03-02T05:06:10;4.60;64.80
49385;DHT22;36795;45.028;38.968;2024-03-02T05:08:55;4.70;64.60
49385;DHT22;36795;45.028;38.968;2024-03-02T05:11:42;4.70;64.40
49385;DHT22;36795;45.028;38.968;2024-03-02T05:14:42;4.90;64.20
49385;DHT22;36795;45.028;38.968;2024-03-02T05:17:28;5.00;63.70
49385;DHT22;36795;45.028;38.968;2024-03-02T05:20:14;5.30;63.10
49385;DHT22;36795;45.028;38.968;2024-03-02T05:23:00;5.40;62.40
49385;DHT22;36795;45.028;38.968;2024-03-02T05:25:46;5.40;62.10
49385;DHT22;36795;45.028;38.968;2024-03-02T05:28:32;5.60;62.10
49385;DHT22;36795;45.028;38.968;2024-03-02T05:31:18;5.70;61.50
49385;DHT22;36795;45.028;38.968;2024-03-02T05:34:04;5.80;61.20
49385;DHT22;36795;45.028;38.968;2024-03-02T05:36:50;5.90;61.00
49385;DHT22;36795;45.028;38.968;2024-03-02T05:39:37;6.20;60.30
49385;DHT22;36795;45.028;38.968;2024-03-02T05:42:23;6.50;59.50
49385;DHT22;36795;45.028;38.968;2024-03-02T05:45:09;6.70;59.20
49385;DHT22;36795;45.028;38.968;2024-03-02T05:47:55;7.00;58.50
49385;DHT22;36795;45.028;38.968;2024-03-02T05:50:42;7.10;57.70
49385;DHT22;36795;45.028;38.968;2024-03-02T05:53:27;7.30;57.40
49385;DHT22;36795;45.028;38.968;2024-03-02T05:56:14;7.50;56.70
49385;DHT22;36795;45.028;38.968;2024-03-02T05:58:59;7.50;56.10
49385;DHT22;36795;45.028;38.968;2024-03-02T06:01:54;7.20;56.10
49385;DHT22;36795;45.028;38.968;2024-03-02T06:04:40;7.10;56.60
49385;DHT22;36795;45.028;38.968;2024-03-02T06:07:26;7.20;56.50
49385;DHT22;36795;45.028;38.968;2024-03-02T06:10:13;7.60;56.10
49385;DHT22;36795;45.028;38.968;2024-03-02T06:12:59;7.90;55.30
49385;DHT22;36795;45.028;38.968;2024-03-02T06:15:45;8.00;54.80
49385;DHT22;36795;45.028;38.968;2024-03-02T06:18:31;8.00;54.60
49385;DHT22;36795;45.028;38.968;2024-03-02T06:21:17;8.10;54.60
49385;DHT22;36795;45.028;38.968;2024-03-02T06:24:04;8.20;54.40
49385;DHT22;36795;45.028;38.968;2024-03-02T06:26:50;8.60;53.50
49385;DHT22;36795;45.028;38.968;2024-03-02T06:29:36;9.00;52.90
49385;DHT22;36795;45.028;38.968;2024-03-02T06:32:23;9.50;51.90
49385;DHT22;36795;45.028;38.968;2024-03-02T06:35:10;9.90;51.00
49385;DHT22;36795;45.028;38.968;2024-03-02T06:37:56;10.40;49.90
49385;DHT22;36795;45.028;38.968;2024-03-02T06:40:42;10.50;49.50
49385;DHT22;36795;45.028;38.968;2024-03-02T06:43:28;10.50;49.20
49385;DHT22;36795;45.028;38.968;2024-03-02T06:46:15;10.30;49.60
49385;DHT22;36795;45.028;38.968;2024-03-02T06:49:01;10.40;49.30
49385;DHT22;36795;45.028;38.968;2024-03-02T06:51:48;10.70;49.10
49385;DHT22;36795;45.028;38.968;2024-03-02T06:54:36;10.80;48.50
49385;DHT22;36795;45.028;38.968;2024-03-02T06:57:23;10.80;48.60
49385;DHT22;36795;45.028;38.968;2024-03-02T07:00:10;10.70;48.20
49385;DHT22;36795;45.028;38.968;2024-03-02T07:02:56;10.50;48.50
49385;DHT22;36795;45.028;38.968;2024-03-02T07:05:43;10.40;48.70
49385;DHT22;36795;45.028;38.968;2024-03-02T07:08:28;10.50;48.80
49385;DHT22;36795;45.028;38.968;2024-03-02T07:11:15;10.60;48.60
49385;DHT22;36795;45.028;38.968;2024-03-02T07:14:01;10.70;48.30
49385;DHT22;36795;45.028;38.968;2024-03-02T07:16:47;10.50;48.30
49385;DHT22;36795;45.028;38.968;2024-03-02T07:19:34;10.30;48.90
49385;DHT22;36795;45.028;38.968;2024-03-02T07:22:20;10.60;48.90
49385;DHT22;36795;45.028;38.968;2024-03-02T07:25:07;11.60;47.60
49385;DHT22;36795;45.028;38.968;2024-03-02T07:27:53;12.60;45.80
49385;DHT22;36795;45.028;38.968;2024-03-02T07:30:39;13.00;44.30
49385;DHT22;36795;45.028;38.968;2024-03-02T07:33:25;13.20;44.00
49385;DHT22;36795;45.028;38.968;2024-03-02T07:36:11;14.00;42.70
49385;DHT22;36795;45.028;38.968;2024-03-02T07:38:58;14.80;41.60
49385;DHT22;36795;45.028;38.968;2024-03-02T07:41:45;15.20;40.70
49385;DHT22;36795;45.028;38.968;2024-03-02T07:44:32;15.30;40.30
49385;DHT22;36795;45.028;38.968;2024-03-02T07:47:18;15.00;40.80
49385;DHT22;36795;45.028;38.968;2024-03-02T07:50:05;14.80;40.60
49385;DHT22;36795;45.028;38.968;2024-03-02T07:52:53;14.70;40.70
49385;DHT22;36795;45.028;38.968;2024-03-02T07:55:40;14.30;41.30
49385;DHT22;36795;45.028;38.968;2024-03-02T07:58:26;13.80;42.00
49385;DHT22;36795;45.028;38.968;2024-03-02T08:01:12;14.00;41.60
49385;DHT22;36795;45.028;38.968;2024-03-02T08:04:00;14.00;41.60
49385;DHT22;36795;45.028;38.968;2024-03-02T08:06:46;14.90;40.80
49385;DHT22;36795;45.028;38.968;2024-03-02T08:09:33;15.90;39.10
49385;DHT22;36795;45.028;38.968;2024-03-02T08:12:18;17.30;37.20
49385;DHT22;36795;45.028;38.968;2024-03-02T08:15:06;17.70;35.80
49385;DHT22;36795;45.028;38.968;2024-03-02T08:17:52;17.20;35.80
49385;DHT22;36795;45.028;38.968;2024-03-02T08:20:38;17.30;36.30
49385;DHT22;36795;45.028;38.968;2024-03-02T08:23:24;18.20;35.20
49385;DHT22;36795;45.028;38.968;2024-03-02T08:26:11;19.00;34.50
49385;DHT22;36795;45.028;38.968;2024-03-02T08:28:57;19.10;34.10
49385;DHT22;36795;45.028;38.968;2024-03-02T08:31:44;19.50;33.80
49385;DHT22;36795;45.028;38.968;2024-03-02T08:34:30;19.60;33.50
49385;DHT22;36795;45.028;38.968;2024-03-02T08:37:16;19.30;33.80
49385;DHT22;36795;45.028;38.968;2024-03-02T08:40:04;19.60;33.70
49385;DHT22;36795;45.028;38.968;2024-03-02T08:42:53;19.70;33.40
49385;DHT22;36795;45.028;38.968;2024-03-02T08:45:40;19.80;33.40
49385;DHT22;36795;45.028;38.968;2024-03-02T08:48:26;20.00;32.90
49385;DHT22;36795;45.028;38.968;2024-03-02T08:51:12;20.10;32.80
49385;DHT22;36795;45.028;38.968;2024-03-02T08:53:59;19.80;32.60
49385;DHT22;36795;45.028;38.968;2024-03-02T08:56:45;19.40;33.10
49385;DHT22;36795;45.028;38.968;2024-03-02T08:59:31;19.30;33.10
49385;DHT22;36795;45.028;38.968;2024-03-02T09:02:17;19.50;33.10
49385;DHT22;36795;45.028;38.968;2024-03-02T09:05:04;19.80;32.90
49385;DHT22;36795;45.028;38.968;2024-03-02T09:07:51;20.10;32.40
49385;DHT22;36795;45.028;38.968;2024-03-02T09:10:37;20.20;32.30
49385;DHT22;36795;45.028;38.968;2024-03-02T09:13:25;20.10;32.30
49385;DHT22;36795;45.028;38.968;2024-03-02T09:16:11;19.80;32.80
49385;DHT22;36795;45.028;38.968;2024-03-02T09:18:58;19.60;32.70
49385;DHT22;36795;45.028;38.968;2024-03-02T09:21:44;19.10;33.50
49385;DHT22;36795;45.028;38.968;2024-03-02T09:24:30;18.70;33.90
49385;DHT22;36795;45.028;38.968;2024-03-02T09:27:16;18.40;34.50
49385;DHT22;36795;45.028;38.968;2024-03-02T09:30:04;18.60;34.40
49385;DHT22;36795;45.028;38.968;2024-03-02T09:32:51;18.70;34.40
49385;DHT22;36795;45.028;38.968;2024-03-02T09:35:37;18.90;34.20
49385;DHT22;36795;45.028;38.968;2024-03-02T09:38:23;18.70;34.10
49385;DHT22;36795;45.028;38.968;2024-03-02T09:41:09;18.30;34.30
49385;DHT22;36795;45.028;38.968;2024-03-02T09:43:55;17.70;35.10
49385;DHT22;36795;45.028;38.968;2024-03-02T09:46:41;17.90;35.40
49385;DHT22;36795;45.028;38.968;2024-03-02T09:49:30;18.40;35.10
49385;DHT22;36795;45.028;38.968;2024-03-02T09:52:16;18.70;34.50
49385;DHT22;36795;45.028;38.968;2024-03-02T09:55:03;18.80;34.00
49385;DHT22;36795;45.028;38.968;2024-03-02T09:57:51;18.40;34.50
49385;DHT22;36795;45.028;38.968;2024-03-02T10:00:37;17.90;35.20
49385;DHT22;36795;45.028;38.968;2024-03-02T10:03:23;17.80;35.60
49385;DHT22;36795;45.028;38.968;2024-03-02T10:06:19;17.80;35.50
49385;DHT22;36795;45.028;38.968;2024-03-02T10:09:06;17.80;35.50
49385;DHT22;36795;45.028;38.968;2024-03-02T10:11:52;18.20;35.50
49385;DHT22;36795;45.028;38.968;2024-03-02T10:14:39;18.50;35.40
49385;DHT22;36795;45.028;38.968;2024-03-02T10:17:31;19.10;34.70
49385;DHT22;36795;45.028;38.968;2024-03-02T10:20:27;19.70;33.90
49385;DHT22;36795;45.028;38.968;2024-03-02T10:23:17;19.60;33.70
49385;DHT22;36795;45.028;38.968;2024-03-02T10:26:17;19.10;34.30
49385;DHT22;36795;45.028;38.968;2024-03-02T10:29:04;19.10;34.40
49385;DHT22;36795;45.028;38.968;2024-03-02T10:31:50;18.60;35.20
49385;DHT22;36795;45.028;38.968;2024-03-02T10:34:36;18.70;35.40
49385;DHT22;36795;45.028;38.968;2024-03-02T10:37:22;18.70;35.80
49385;DHT22;36795;45.028;38.968;2024-03-02T10:40:11;18.90;35.80
49385;DHT22;36795;45.028;38.968;2024-03-02T10:42:57;19.30;35.50
49385;DHT22;36795;45.028;38.968;2024-03-02T10:45:47;19.50;34.80
49385;DHT22;36795;45.028;38.968;2024-03-02T10:48:35;19.50;34.70
49385;DHT22;36795;45.028;38.968;2024-03-02T10:51:22;19.50;35.00
49385;DHT22;36795;45.028;38.968;2024-03-02T10:54:09;19.20;35.40
49385;DHT22;36795;45.028;38.968;2024-03-02T10:56:58;18.60;35.80
49385;DHT22;36795;45.028;38.968;2024-03-02T10:59:57;17.70;37.10
49385;DHT22;36795;45.028;38.968;2024-03-02T11:02:51;17.20;38.30
49385;DHT22;36795;45.028;38.968;2024-03-02T11:05:40;17.00;38.90
49385;DHT22;36795;45.028;38.968;2024-03-02T11:08:26;16.90;39.30
49385;DHT22;36795;45.028;38.968;2024-03-02T11:11:23;16.80;39.90
49385;DHT22;36795;45.028;38.968;2024-03-02T11:14:17;17.10;39.60
49385;DHT22;36795;45.028;38.968;2024-03-02T11:17:06;17.60;39.10
49385;DHT22;36795;45.028;38.968;2024-03-02T11:19:53;17.90;38.30
49385;DHT22;36795;45.028;38.968;2024-03-02T11:22:39;17.90;38.40
49385;DHT22;36795;45.028;38.968;2024-03-02T11:25:26;18.10;38.30
49385;DHT22;36795;45.028;38.968;2024-03-02T11:28:13;18.20;38.00
49385;DHT22;36795;45.028;38.968;2024-03-02T11:30:59;18.20;38.00
49385;DHT22;36795;45.028;38.968;2024-03-02T11:33:45;18.40;37.90
49385;DHT22;36795;45.028;38.968;2024-03-02T11:36:31;18.50;37.80
49385;DHT22;36795;45.028;38.968;2024-03-02T11:39:18;18.60;37.60
49385;DHT22;36795;45.028;38.968;2024-03-02T11:42:06;18.30;37.70
49385;DHT22;36795;45.028;38.968;2024-03-02T11:44:56;18.00;38.30
49385;DHT22;36795;45.028;38.968;2024-03-02T11:47:49;17.70;38.80
49385;DHT22;36795;45.028;38.968;2024-03-02T11:50:40;17.30;39.30
49385;DHT22;36795;45.028;38.968;2024-03-02T11:53:27;17.20;39.50
49385;DHT22;36795;45.028;38.968;2024-03-02T11:56:18;17.00;39.90
49385;DHT22;36795;45.028;38.968;2024-03-02T11:59:05;17.00;39.80
49385;DHT22;36795;45.028;38.968;2024-03-02T12:01:52;17.10;39.80
49385;DHT22;36795;45.028;38.968;2024-03-02T12:04:38;17.10;39.70
49385;DHT22;36795;45.028;38.968;2024-03-02T12:07:25;17.20;39.50
49385;DHT22;36795;45.028;38.968;2024-03-02T12:10:12;17.10;39.60
49385;DHT22;36795;45.028;38.968;2024-03-02T12:13:05;16.90;40.00
49385;DHT22;36795;45.028;38.968;2024-03-02T12:15:56;16.80;40.30
49385;DHT22;36795;45.028;38.968;2024-03-02T12:18:42;16.80;41.00
49385;DHT22;36795;45.028;38.968;2024-03-02T12:21:29;17.00;40.30
49385;DHT22;36795;45.028;38.968;2024-03-02T12:24:15;17.10;40.10
49385;DHT22;36795;45.028;38.968;2024-03-02T12:27:03;17.40;39.80
49385;DHT22;36795;45.028;38.968;2024-03-02T12:29:49;17.60;39.60
49385;DHT22;36795;45.028;38.968;2024-03-02T12:32:37;17.80;39.30
49385;DHT22;36795;45.028;38.968;2024-03-02T12:35:25;17.80;39.30
49385;DHT22;36795;45.028;38.968;2024-03-02T12:38:11;17.90;39.70
49385;DHT22;36795;45.028;38.968;2024-03-02T12:40:57;17.90;38.80
49385;DHT22;36795;45.028;38.968;2024-03-02T12:43:44;17.60;39.00
49385;DHT22;36795;45.028;38.968;2024-03-02T12:46:31;17.20;39.50
49385;DHT22;36795;45.028;38.968;2024-03-02T12:49:17;17.00;39.80
49385;DHT22;36795;45.028;38.968;2024-03-02T12:52:07;16.80;40.10
49385;DHT22;36795;45.028;38.968;2024-03-02T12:54:54;16.40;41.10
49385;DHT22;36795;45.028;38.968;2024-03-02T12:57:44;16.30;40.60
49385;DHT22;36795;45.028;38.968;2024-03-02T13:00:30;16.10;40.90
49385;DHT22;36795;45.028;38.968;2024-03-02T13:03:20;16.00;41.20
49385;DHT22;36795;45.028;38.968;2024-03-02T13:06:08;15.80;41.30
49385;DHT22;36795;45.028;38.968;2024-03-02T13:08:55;15.70;41.70
49385;DHT22;36795;45.028;38.968;2024-03-02T13:11:42;15.60;41.60
49385;DHT22;36795;45.028;38.968;2024-03-02T13:14:28;15.30;41.70
49385;DHT22;36795;45.028;38.968;2024-03-02T13:17:14;15.10;42.10
49385;DHT22;36795;45.028;38.968;2024-03-02T13:20:00;14.80;42.30
49385;DHT22;36795;45.028;38.968;2024-03-02T13:22:46;14.60;42.80
49385;DHT22;36795;45.028;38.968;2024-03-02T13:25:32;14.50;43.00
49385;DHT22;36795;45.028;38.968;2024-03-02T13:28:19;14.50;43.20
49385;DHT22;36795;45.028;38.968;2024-03-02T13:31:05;14.50;43.30
49385;DHT22;36795;45.028;38.968;2024-03-02T13:33:51;14.50;44.00
49385;DHT22;36795;45.028;38.968;2024-03-02T13:36:37;14.40;43.60
49385;DHT22;36795;45.028;38.968;2024-03-02T13:39:24;14.50;43.70
49385;DHT22;36795;45.028;38.968;2024-03-02T13:42:11;14.40;44.00
49385;DHT22;36795;45.028;38.968;2024-03-02T13:44:59;14.30;44.60
49385;DHT22;36795;45.028;38.968;2024-03-02T13:47:45;14.10;44.90
49385;DHT22;36795;45.028;38.968;2024-03-02T13:50:32;14.10;45.10
49385;DHT22;36795;45.028;38.968;2024-03-02T13:53:19;14.00;45.20
49385;DHT22;36795;45.028;38.968;2024-03-02T13:56:05;14.00;45.10
49385;DHT22;36795;45.028;38.968;2024-03-02T13:58:51;14.00;44.90
49385;DHT22;36795;45.028;38.968;2024-03-02T14:01:37;13.80;44.80
49385;DHT22;36795;45.028;38.968;2024-03-02T14:04:24;13.80;45.00
49385;DHT22;36795;45.028;38.968;2024-03-02T14:07:09;13.60;45.20
49385;DHT22;36795;45.028;38.968;2024-03-02T14:09:58;13.60;45.30
49385;DHT22;36795;45.028;38.968;2024-03-02T14:12:43;13.50;45.60
49385;DHT22;36795;45.028;38.968;2024-03-02T14:15:29;13.40;46.20
49385;DHT22;36795;45.028;38.968;2024-03-02T14:18:16;13.20;46.80
49385;DHT22;36795;45.028;38.968;2024-03-02T14:21:03;13.00;47.20
49385;DHT22;36795;45.028;38.968;2024-03-02T14:23:49;12.90;47.60
49385;DHT22;36795;45.028;38.968;2024-03-02T14:26:36;12.80;47.90
49385;DHT22;36795;45.028;38.968;2024-03-02T14:29:24;12.60;47.90
49385;DHT22;36795;45.028;38.968;2024-03-02T14:32:10;12.50;48.10
49385;DHT22;36795;45.028;38.968;2024-03-02T14:34:56;12.40;48.50
49385;DHT22;36795;45.028;38.968;2024-03-02T14:37:42;12.30;48.90
49385;DHT22;36795;45.028;38.968;2024-03-02T14:40:28;12.20;49.20
49385;DHT22;36795;45.028;38.968;2024-03-02T14:43:15;12.00;49.50
49385;DHT22;36795;45.028;38.968;2024-03-02T14:46:01;11.90;49.60
49385;DHT22;36795;45.028;38.968;2024-03-02T14:48:47;11.90;50.00
49385;DHT22;36795;45.028;38.968;2024-03-02T14:51:33;11.80;50.10
49385;DHT22;36795;45.028;38.968;2024-03-02T14:54:20;11.60;50.40
49385;DHT22;36795;45.028;38.968;2024-03-02T14:57:05;11.50;50.70
49385;DHT22;36795;45.028;38.968;2024-03-02T14:59:52;11.30;50.90
49385;DHT22;36795;45.028;38.968;2024-03-02T15:02:38;11.20;50.90
49385;DHT22;36795;45.028;38.968;2024-03-02T15:05:24;11.00;51.00
49385;DHT22;36795;45.028;38.968;2024-03-02T15:08:11;10.90;51.20
49385;DHT22;36795;45.028;38.968;2024-03-02T15:10:57;10.90;51.30
49385;DHT22;36795;45.028;38.968;2024-03-02T15:13:45;10.80;51.40
49385;DHT22;36795;45.028;38.968;2024-03-02T15:16:31;10.80;51.40
49385;DHT22;36795;45.028;38.968;2024-03-02T15:19:17;10.70;51.30
49385;DHT22;36795;45.028;38.968;2024-03-02T15:22:04;10.70;51.30
49385;DHT22;36795;45.028;38.968;2024-03-02T15:24:50;10.60;51.60
49385;DHT22;36795;45.028;38.968;2024-03-02T15:27:36;10.50;51.90
49385;DHT22;36795;45.028;38.968;2024-03-02T15:30:22;10.40;52.20
49385;DHT22;36795;45.028;38.968;2024-03-02T15:33:09;10.30;52.30
49385;DHT22;36795;45.028;38.968;2024-03-02T15:35:54;10.30;52.60
49385;DHT22;36795;45.028;38.968;2024-03-02T15:38:41;10.20;52.70
49385;DHT22;36795;45.028;38.968;2024-03-02T15:41:26;10.20;52.90
49385;DHT22;36795;45.028;38.968;2024-03-02T15:44:13;10.20;52.90
49385;DHT22;36795;45.028;38.968;2024-03-02T15:46:59;10.10;53.30
49385;DHT22;36795;45.028;38.968;2024-03-02T15:49:45;10.00;53.40
49385;DHT22;36795;45.028;38.968;2024-03-02T15:52:31;9.90;53.70
49385;DHT22;36795;45.028;38.968;2024-03-02T15:55:17;9.90;53.90
49385;DHT22;36795;45.028;38.968;2024-03-02T15:58:03;9.90;53.80
49385;DHT22;36795;45.028;38.968;2024-03-02T16:00:51;9.90;53.80
49385;DHT22;36795;45.028;38.968;2024-03-02T16:03:37;9.90;53.90
49385;DHT22;36795;45.028;38.968;2024-03-02T16:06:23;9.80;53.80
49385;DHT22;36795;45.028;38.968;2024-03-02T16:09:09;9.80;53.90
49385;DHT22;36795;45.028;38.968;2024-03-02T16:11:56;9.80;54.00
49385;DHT22;36795;45.028;38.968;2024-03-02T16:14:42;9.80;54.10
49385;DHT22;36795;45.028;38.968;2024-03-02T16:17:28;9.80;53.90
49385;DHT22;36795;45.028;38.968;2024-03-02T16:20:15;9.90;53.90
49385;DHT22;36795;45.028;38.968;2024-03-02T16:23:01;9.80;54.00
49385;DHT22;36795;45.028;38.968;2024-03-02T16:25:47;9.80;54.10
49385;DHT22;36795;45.028;38.968;2024-03-02T16:28:33;9.70;54.20
49385;DHT22;36795;45.028;38.968;2024-03-02T16:31:19;9.70;54.20
49385;DHT22;36795;45.028;38.968;2024-03-02T16:34:05;9.70;54.30
49385;DHT22;36795;45.028;38.968;2024-03-02T16:36:52;9.70;54.30
49385;DHT22;36795;45.028;38.968;2024-03-02T16:39:38;9.70;54.50
49385;DHT22;36795;45.028;38.968;2024-03-02T16:42:24;9.70;54.50
49385;DHT22;36795;45.028;38.968;2024-03-02T16:45:10;9.60;54.60
49385;DHT22;36795;45.028;38.968;2024-03-02T16:47:56;9.60;54.70
49385;DHT22;36795;45.028;38.968;2024-03-02T16:50:42;9.60;54.70
49385;DHT22;36795;45.028;38.968;2024-03-02T16:53:28;9.60;54.70
49385;DHT22;36795;45.028;38.968;2024-03-02T16:56:14;9.60;54.70
49385;DHT22;36795;45.028;38.968;2024-03-02T16:59:01;9.60;54.70
49385;DHT22;36795;45.028;38.968;2024-03-02T17:01:47;9.60;54.60
49385;DHT22;36795;45.028;38.968;2024-03-02T17:04:33;9.60;54.70
49385;DHT22;36795;45.028;38.968;2024-03-02T17:07:19;9.60;54.80
49385;DHT22;36795;45.028;38.968;2024-03-02T17:10:06;9.50;55.10
49385;DHT22;36795;45.028;38.968;2024-03-02T17:12:52;9.50;55.10
49385;DHT22;36795;45.028;38.968;2024-03-02T17:15:41;9.60;55.20
49385;DHT22;36795;45.028;38.968;2024-03-02T17:18:27;9.60;55.20
49385;DHT22;36795;45.028;38.968;2024-03-02T17:21:13;9.60;55.20
49385;DHT22;36795;45.028;38.968;2024-03-02T17:23:59;9.60;55.30
49385;DHT22;36795;45.028;38.968;2024-03-02T17:26:48;9.50;55.20
49385;DHT22;36795;45.028;38.968;2024-03-02T17:29:33;9.60;55.30